Lobeco, SC (29931)

1:57 PM EDT on May 24, 2017 (GMT -0400)
Sheldon Fire Dept | | Change Station
Active Advisory: Tornado Watch Active Notice: Public Information Statement

Elev 46 ft 32.60 °N, 80.79 °W | Updated 1 second ago

Thunderstorm
Thunderstorm
72.8 °F
Feels Like 72.8 °F
N
9.0
Wind Variable Wind from SSW

Today
High -- | Low -- °F
--% Chance of Precip.
Yesterday
High -- | Low -- °F
Precip. -- in
Pressure 29.69 in
Visibility 0.2 miles
Clouds Mostly Cloudy 2000 ft
Overcast 5000 ft
Dew Point 70 °F
Humidity 92%
Rainfall 0.17 in
Snow Depth Not available.
6:19 AM 8:20 PM
Waning Crescent, 2% visible
SPECI KNBC 241723Z 17014G22KT 1/4SM +TSRA BR BKN020 OVC050 21/21 A2969 RMK AO2 PK WND 18033/1710 SFC VIS 3/4 RAB12 TSB1657B1658 P0015 T02110206 $
Pressure 29.69 in
Visibility 0.2 miles
Clouds Mostly Cloudy 2000 ft
Overcast 5000 ft
Dew Point 70 °F
Humidity 92%
Rainfall 0.17 in
Snow Depth Not available.
6:19 AM 8:20 PM
Waning Crescent, 2% visible
SPECI KNBC 241723Z 17014G22KT 1/4SM +TSRA BR BKN020 OVC050 21/21 A2969 RMK AO2 PK WND 18033/1710 SFC VIS 3/4 RAB12 TSB1657B1658 P0015 T02110206 $

Get Your Daily Forecast Email!

Thanks for signing up!

Be on the lookout for a verification email in your inbox.

You'll start receiving severe weather alerts in your inbox..

×

10-Day Weather Forecast

Almanac

Astronomy

May. 24, 2017 Rise Set
Actual Time
Civil Twilight
Nautical Twilight
Astronomical Twilight
Moon
Length of Visible Light
Length of Day
Tomorrow will be .
, % of the Moon is Illuminated

Today's Extremes

State Highs State Lows

Community

WunderPhotos

Category 6

Welcome to Category 6. This is the collective home for Weather Underground's featured writeups by Dr. Jeff Masters (right), Bob Henson (left), Chris Burt, and other regular contributors.

Nearby

Air Quality

  Air Quality AQ Index Pollutant
Not available.

Snow Depth

Station Depth Elevation

Earthquake Activity

City Distance Mag. Time & Date
Minimum magnitude displayed is 2.5.

Coastal Water Temperatures

Place Temperature

Stations

Nearby Weather Stations

Station Location Temp. Windchill Dew Point Humidity Wind Precip. Elev Updated Type
                   

Watches & Warnings

Tornado Watch
Issued: 1:43 PM EDT May. 24, 2017 – National Weather Service

Tornado Watch 263 remains in effect until 600 PM EDT for the
following locations

SC
. South Carolina counties included are

Aiken Allendale Bamberg
Barnwell Beaufort Berkeley
Calhoun Charleston Chesterfield
Clarendon Colleton Dorchester
Edgefield Hampton Jasper
Kershaw Lee Lexington
Orangeburg Richland Saluda
Sumter